Chiang Mai, Thailand

3:59 PM ICT on August 24, 2016 (GMT +0700)
ThaiWx Station | | Change Station

Elev 1007 ft 18.77 °N, 98.97 °E | Updated 22 seconds ago

Mostly Cloudy
Mostly Cloudy
83.8 °F
Feels Like 92 °F
N
0.0
Wind Variable Wind from WSW
Gusts 0.0 mph

Today
High -- | Low -- °F
--% Chance of Precip.
Yesterday
High -- | Low -- °F
Precip. -- in
Pressure 29.68 in
Visibility 6.2 miles
Clouds Few 2500 ft
Mostly Cloudy 3500 ft
Heat Index 92 °F
Dew Point 75 °F
Humidity 76%
Rainfall 0.00 in
Snow Depth Not available.
6:07 AM 6:44 PM
Waning Gibbous, 59% visible
METAR VTCC 240830Z 03007KT 9999 FEW025CB BKN035 28/23 Q1005 A2967 TEMPO VRB10G25KT 5000 TSRA FEW025CB BKN030
Pressure 29.68 in
Visibility 6.2 miles
Clouds Few 2500 ft
Mostly Cloudy 3500 ft
Heat Index 92 °F
Dew Point 75 °F
Humidity 76%
Rainfall 0.00 in
Snow Depth Not available.
6:07 AM 6:44 PM
Waning Gibbous, 59% visible
METAR VTCC 240830Z 03007KT 9999 FEW025CB BKN035 28/23 Q1005 A2967 TEMPO VRB10G25KT 5000 TSRA FEW025CB BKN030

10-Day Weather Forecast

No radar image for this location.
×

Almanac

Astronomy

Aug. 24, 2016 Rise Set
Actual Time
Civil Twilight
Nautical Twilight
Astronomical Twilight
Moon
Length of Visible Light
Length of Day
Tomorrow will be .
, % of the Moon is Illuminated

Today's Extremes

Country Highs Country Lows

Community

WunderPhotos

Upload Photos

1,934,560 photos uploaded!

WunderBlog® & News

Nearby

Air Quality

  Air Quality AQ Index Pollutant
Not available.

Snow Depth

Station Depth Elevation

Earthquake Activity

City Distance Mag. Time & Date
Minimum magnitude displayed is 2.5.

Coastal Water Temperatures

Place Temperature

Stations

Nearby Weather Stations

Station Location Temp. Windchill Dew Point Humidity Wind Precip. Elev Updated Type